Time;durP1;ratioP1;P1;durP2;ratioP2;P2;SDS_P1;SDS_P2;PMS_P1;PMS_P2;Temp;Humidity;BMP_temperature;BMP_pressure;BME280_temperature;BME280_humidity;BME280_pressure;Samples;Min_cycle;Max_cycle;Signal;HPM_P1;HPM_P2
2021/09/09 00:02:10;;;;;;;1.50;1.30;;;16.60;98.00;;;;;;5092189;28;20452;-69
2021/09/09 00:04:38;;;;;;;2.80;1.63;;;16.60;98.00;;;;;;5091980;28;20494;-68
2021/09/09 00:07:05;;;;;;;2.80;2.00;;;16.70;98.00;;;;;;5092002;28;20459;-69
2021/09/09 00:09:32;;;;;;;1.97;1.40;;;16.60;98.00;;;;;;5090989;28;20475;-69
2021/09/09 00:11:59;;;;;;;2.17;1.90;;;16.50;98.00;;;;;;5091891;28;20535;-70
2021/09/09 00:14:26;;;;;;;3.40;2.00;;;16.50;98.00;;;;;;5091972;28;20488;-70
2021/09/09 00:16:55;;;;;;;2.70;1.73;;;16.60;98.00;;;;;;5091916;28;20448;-69
2021/09/09 00:19:22;;;;;;;2.43;1.60;;;16.60;98.00;;;;;;5091901;28;20483;-69
2021/09/09 00:21:49;;;;;;;2.10;1.73;;;16.60;98.00;;;;;;5091801;28;20495;-69
2021/09/09 00:24:16;;;;;;;2.83;1.77;;;16.60;98.00;;;;;;5090822;28;20498;-69
2021/09/09 00:26:43;;;;;;;1.57;1.47;;;16.60;98.00;;;;;;5090598;28;20460;-69
2021/09/09 00:29:10;;;;;;;2.17;1.70;;;16.60;98.00;;;;;;5091690;28;20460;-70
2021/09/09 00:31:37;;;;;;;1.70;1.60;;;16.60;98.00;;;;;;5091202;28;20483;-68
2021/09/09 00:34:07;;;;;;;2.53;1.77;;;16.60;98.00;;;;;;5091370;28;20451;-69
2021/09/09 00:36:34;;;;;;;1.80;1.63;;;16.60;98.00;;;;;;5091259;28;20879;-69
2021/09/09 00:39:01;;;;;;;2.03;1.57;;;16.60;98.00;;;;;;5091365;28;20576;-70
2021/09/09 00:41:30;;;;;;;2.70;1.70;;;16.70;98.00;;;;;;5091706;28;20938;-70
2021/09/09 00:43:57;;;;;;;2.90;2.40;;;16.70;98.00;;;;;;5091740;28;20467;-69
2021/09/09 00:46:24;;;;;;;2.30;1.57;;;16.80;98.00;;;;;;5091773;28;20491;-70
2021/09/09 00:48:51;;;;;;;1.80;1.60;;;16.90;98.00;;;;;;5091701;28;20982;-71
2021/09/09 00:51:20;;;;;;;3.10;2.00;;;16.90;98.00;;;;;;5091815;28;20862;-70
2021/09/09 00:53:47;;;;;;;2.80;1.53;;;16.90;98.00;;;;;;5091728;28;20480;-69
2021/09/09 00:56:15;;;;;;;4.10;1.90;;;16.80;98.00;;;;;;5091640;28;20452;-68
2021/09/09 00:58:44;;;;;;;1.90;1.80;;;16.80;98.00;;;;;;5091767;28;20523;-69
2021/09/09 01:01:12;;;;;;;3.23;1.67;;;16.90;98.00;;;;;;5091755;28;21162;-70
2021/09/09 01:03:39;;;;;;;2.77;1.87;;;16.80;98.00;;;;;;5091633;28;21011;-69
2021/09/09 01:06:07;;;;;;;2.03;1.57;;;16.90;98.00;;;;;;5091695;28;20510;-70
2021/09/09 01:08:35;;;;;;;1.63;1.43;;;17.00;98.00;;;;;;5091458;28;20448;-69
2021/09/09 01:11:03;;;;;;;3.10;1.97;;;16.90;98.00;;;;;;5091280;28;20491;-69
2021/09/09 01:13:29;;;;;;;3.73;2.17;;;16.90;98.00;;;;;;5091529;28;20479;-70
2021/09/09 01:15:56;;;;;;;5.13;2.23;;;17.00;98.00;;;;;;5091022;28;20483;-70
2021/09/09 01:18:23;;;;;;;2.00;1.83;;;17.00;98.00;;;;;;5091191;28;21024;-69
2021/09/09 01:20:50;;;;;;;2.77;1.97;;;17.00;98.00;;;;;;5090014;28;20456;-69
2021/09/09 01:23:20;;;;;;;1.47;1.43;;;17.10;98.00;;;;;;5091463;28;20476;-69
2021/09/09 01:25:48;;;;;;;1.83;1.57;;;17.00;98.00;;;;;;5091028;28;20473;-69
2021/09/09 01:28:15;;;;;;;1.40;1.30;;;17.10;98.00;;;;;;5091210;28;20819;-69
2021/09/09 01:30:42;;;;;;;2.00;1.80;;;16.80;98.00;;;;;;5091187;28;20872;-70
2021/09/09 01:33:10;;;;;;;4.77;2.27;;;16.60;98.00;;;;;;5091176;28;20517;-70
2021/09/09 01:35:37;;;;;;;2.23;1.40;;;16.40;98.00;;;;;;5091147;28;20457;-71
2021/09/09 01:38:04;;;;;;;2.27;1.70;;;16.40;98.00;;;;;;5091134;28;20491;-70
2021/09/09 01:40:32;;;;;;;1.70;1.60;;;16.50;98.00;;;;;;5090805;28;20567;-71
2021/09/09 01:43:01;;;;;;;1.90;1.63;;;16.60;98.00;;;;;;5091540;28;20487;-69
2021/09/09 01:45:28;;;;;;;1.87;1.40;;;16.60;98.00;;;;;;5094749;28;20978;-70
2021/09/09 01:47:55;;;;;;;2.30;1.70;;;16.60;98.00;;;;;;5094768;28;20509;-69
2021/09/09 01:50:22;;;;;;;1.97;1.47;;;16.50;98.00;;;;;;5093383;28;20535;-70
2021/09/09 01:52:49;;;;;;;2.00;1.50;;;16.50;98.00;;;;;;5094798;28;20509;-70
2021/09/09 01:55:16;;;;;;;2.47;1.90;;;16.40;98.00;;;;;;5094509;28;20487;-69
2021/09/09 01:57:43;;;;;;;2.60;1.63;;;16.30;98.00;;;;;;5094640;28;20546;-70
2021/09/09 02:00:17;;;;;;;2.97;1.93;;;16.30;98.00;;;;;;5094447;28;21005;-70
2021/09/09 02:02:46;;;;;;;4.83;2.00;;;16.30;98.00;;;;;;5093437;28;20818;-69
2021/09/09 02:05:21;;;;;;;2.33;1.63;;;16.20;98.00;;;;;;5094342;28;20440;-69
2021/09/09 02:07:48;;;;;;;4.40;1.93;;;16.30;98.00;;;;;;5094484;28;20459;-69
2021/09/09 02:10:19;;;;;;;2.20;1.93;;;16.40;98.00;;;;;;5094237;28;20551;-69
2021/09/09 02:12:46;;;;;;;2.63;1.83;;;16.40;98.00;;;;;;5094503;28;20498;-69
2021/09/09 02:15:15;;;;;;;2.40;2.00;;;16.50;98.00;;;;;;5094336;28;20487;-69
2021/09/09 02:17:42;;;;;;;2.10;1.77;;;16.50;98.00;;;;;;5094535;28;20494;-71
2021/09/09 02:20:10;;;;;;;3.67;1.90;;;16.50;98.00;;;;;;5093200;28;20514;-68
2021/09/09 02:22:37;;;;;;;2.03;1.77;;;16.40;98.00;;;;;;5094310;28;20522;-68
2021/09/09 02:25:04;;;;;;;2.63;1.90;;;16.40;98.00;;;;;;5093983;28;20499;-71
2021/09/09 02:27:34;;;;;;;1.63;1.43;;;16.20;98.00;;;;;;5094214;28;20488;-70
2021/09/09 02:30:02;;;;;;;2.67;1.83;;;16.20;98.00;;;;;;5093684;28;20460;-69
2021/09/09 02:32:31;;;;;;;3.63;1.80;;;16.20;98.00;;;;;;5094106;28;20480;-69
2021/09/09 02:34:58;;;;;;;3.10;1.77;;;16.10;98.00;;;;;;5093825;28;21112;-69
2021/09/09 02:37:25;;;;;;;2.20;1.50;;;16.10;98.00;;;;;;5093554;28;20464;-69
2021/09/09 02:39:51;;;;;;;3.07;2.00;;;16.10;98.00;;;;;;5093563;28;20515;-69
2021/09/09 02:42:18;;;;;;;1.50;1.40;;;16.10;98.00;;;;;;5093643;28;20472;-70
2021/09/09 02:44:45;;;;;;;2.30;1.90;;;16.00;98.00;;;;;;5093567;28;20488;-69
2021/09/09 02:47:12;;;;;;;3.67;1.87;;;15.90;98.00;;;;;;5093274;28;20447;-70
2021/09/09 02:49:41;;;;;;;1.60;1.40;;;15.80;98.00;;;;;;5093608;28;20451;-69
2021/09/09 02:52:08;;;;;;;2.03;1.53;;;15.90;98.00;;;;;;5093179;28;20509;-70
2021/09/09 02:54:35;;;;;;;2.03;1.73;;;15.70;98.00;;;;;;5093137;28;20513;-69
2021/09/09 02:57:02;;;;;;;3.77;2.17;;;15.60;98.00;;;;;;5093257;28;20546;-70
2021/09/09 02:59:29;;;;;;;2.20;1.70;;;15.60;98.00;;;;;;5093382;28;20568;-70
2021/09/09 03:01:56;;;;;;;3.30;1.80;;;15.60;98.00;;;;;;5093422;28;20513;-69
2021/09/09 03:04:23;;;;;;;2.73;2.13;;;15.70;98.00;;;;;;5093236;28;20868;-70
2021/09/09 03:06:52;;;;;;;2.63;1.97;;;15.50;98.00;;;;;;5093094;28;20502;-71
2021/09/09 03:09:18;;;;;;;2.80;1.50;;;15.50;98.00;;;;;;5092045;28;20471;-69
2021/09/09 03:11:46;;;;;;;5.67;1.90;;;15.50;98.00;;;;;;5093092;28;20517;-69
2021/09/09 03:14:13;;;;;;;2.00;1.60;;;15.50;98.00;;;;;;5093041;28;20487;-69
2021/09/09 03:16:40;;;;;;;3.33;1.90;;;15.40;98.00;;;;;;5093045;28;20447;-69
2021/09/09 03:19:07;;;;;;;2.70;1.80;;;15.50;98.00;;;;;;5092868;28;20518;-70
2021/09/09 03:21:34;;;;;;;1.90;1.50;;;15.40;98.00;;;;;;5092746;28;20485;-69
2021/09/09 03:24:02;;;;;;;2.13;1.87;;;15.30;98.00;;;;;;5091887;28;20659;-68
2021/09/09 03:26:30;;;;;;;2.90;1.80;;;15.40;98.00;;;;;;5092800;28;20623;-70
2021/09/09 03:28:57;;;;;;;1.80;1.60;;;15.60;98.00;;;;;;5092731;28;20499;-68
2021/09/09 03:31:24;;;;;;;1.50;1.27;;;15.60;98.00;;;;;;5093053;28;20476;-70
2021/09/09 03:33:51;;;;;;;2.23;1.90;;;15.60;98.00;;;;;;5092932;28;20476;-69
2021/09/09 03:36:18;;;;;;;2.07;1.43;;;15.60;98.00;;;;;;5092746;28;20474;-70
2021/09/09 03:38:45;;;;;;;2.07;1.50;;;15.60;98.00;;;;;;5092852;28;20463;-70
2021/09/09 03:41:13;;;;;;;3.37;2.17;;;15.60;98.00;;;;;;5092740;28;20499;-70
2021/09/09 03:43:40;;;;;;;2.23;1.60;;;15.60;98.00;;;;;;5092669;28;20492;-69
2021/09/09 03:46:07;;;;;;;2.73;1.87;;;15.60;98.00;;;;;;5092612;28;20487;-69
2021/09/09 03:48:34;;;;;;;1.90;1.60;;;15.50;98.00;;;;;;5092447;28;20889;-71
2021/09/09 03:51:01;;;;;;;1.90;1.80;;;15.50;98.00;;;;;;5092163;28;20488;-68
2021/09/09 03:53:29;;;;;;;1.87;1.30;;;15.60;98.00;;;;;;5092544;28;20483;-70
2021/09/09 03:55:56;;;;;;;2.30;1.80;;;15.60;98.00;;;;;;5092161;28;20476;-70
2021/09/09 03:58:25;;;;;;;3.17;1.73;;;15.60;98.00;;;;;;5092044;28;21011;-69
2021/09/09 04:00:52;;;;;;;2.43;1.80;;;15.60;98.00;;;;;;5092198;28;20479;-70
2021/09/09 04:03:19;;;;;;;1.53;1.37;;;15.60;98.00;;;;;;5092161;28;20900;-70
2021/09/09 04:05:46;;;;;;;2.73;1.80;;;15.60;98.00;;;;;;5091248;28;20480;-69
2021/09/09 04:08:13;;;;;;;2.07;1.57;;;15.50;98.00;;;;;;5091928;28;20587;-69
2021/09/09 04:10:40;;;;;;;3.10;1.67;;;15.40;98.00;;;;;;5091228;28;20456;-69
2021/09/09 04:13:07;;;;;;;2.63;1.80;;;15.50;98.00;;;;;;5091221;28;20554;-70
2021/09/09 04:15:35;;;;;;;2.73;1.97;;;15.50;98.00;;;;;;5091147;28;20948;-69
2021/09/09 04:18:02;;;;;;;2.80;1.70;;;15.40;98.00;;;;;;5091158;28;20487;-69
2021/09/09 04:20:29;;;;;;;1.90;1.53;;;15.40;98.00;;;;;;5091401;28;20492;-68
2021/09/09 04:22:56;;;;;;;2.20;1.60;;;15.40;98.00;;;;;;5091966;28;20495;-69
2021/09/09 04:25:23;;;;;;;2.70;1.97;;;15.40;98.00;;;;;;5090630;28;20512;-69
2021/09/09 04:27:50;;;;;;;3.37;1.87;;;15.30;98.00;;;;;;5091897;28;20839;-69
2021/09/09 04:30:17;;;;;;;2.53;1.93;;;15.30;98.00;;;;;;5090485;28;20999;-70
2021/09/09 04:32:46;;;;;;;1.53;1.40;;;15.30;98.00;;;;;;5091067;28;20451;-69
2021/09/09 04:35:13;;;;;;;5.07;2.10;;;15.40;98.00;;;;;;5091889;28;20487;-70
2021/09/09 04:37:41;;;;;;;3.03;2.23;;;15.30;98.00;;;;;;5092124;28;20507;-69
2021/09/09 04:40:09;;;;;;;1.97;1.87;;;15.30;98.00;;;;;;5090665;28;20518;-70
2021/09/09 04:42:36;;;;;;;3.10;1.80;;;15.20;98.00;;;;;;5091915;28;20817;-70
2021/09/09 04:45:04;;;;;;;2.23;1.50;;;15.20;98.00;;;;;;5091886;28;20505;-68
2021/09/09 04:47:31;;;;;;;2.30;1.87;;;15.20;98.00;;;;;;5091766;28;20555;-69
2021/09/09 04:50:00;;;;;;;2.60;1.90;;;15.20;98.00;;;;;;5091787;28;20514;-70
2021/09/09 04:52:27;;;;;;;2.30;1.70;;;15.20;98.00;;;;;;5091838;28;20480;-69
2021/09/09 04:54:54;;;;;;;2.80;1.93;;;15.30;98.00;;;;;;5091782;28;20852;-70
2021/09/09 04:57:20;;;;;;;1.97;1.40;;;15.40;98.00;;;;;;5091756;28;20491;-69
2021/09/09 04:59:48;;;;;;;1.90;1.60;;;15.40;98.00;;;;;;5091812;28;20601;-69
2021/09/09 05:02:14;;;;;;;2.80;1.47;;;15.40;98.00;;;;;;5090666;28;20494;-69
2021/09/09 05:04:41;;;;;;;2.93;1.80;;;15.40;98.00;;;;;;5091989;28;20542;-69
2021/09/09 05:07:10;;;;;;;5.60;1.87;;;15.30;98.00;;;;;;5091682;28;21022;-69
2021/09/09 05:09:37;;;;;;;13.40;2.00;;;15.20;98.00;;;;;;5091294;28;20495;-70
2021/09/09 05:12:04;;;;;;;1.93;1.73;;;15.30;98.00;;;;;;5091524;28;20517;-69
2021/09/09 05:14:34;;;;;;;3.83;1.60;;;15.30;98.00;;;;;;5091601;28;20503;-69
2021/09/09 05:17:01;;;;;;;1.93;1.60;;;15.20;98.00;;;;;;5091288;28;20479;-69
2021/09/09 05:19:28;;;;;;;1.50;1.40;;;15.20;98.00;;;;;;5094257;28;20934;-70
2021/09/09 05:21:55;;;;;;;2.30;1.80;;;15.30;98.00;;;;;;5095261;28;20927;-68
2021/09/09 05:24:24;;;;;;;2.07;1.57;;;15.40;98.00;;;;;;5094136;28;20508;-70
2021/09/09 05:26:50;;;;;;;2.63;1.70;;;15.40;98.00;;;;;;5095267;28;20492;-69
2021/09/09 05:29:17;;;;;;;2.47;1.60;;;15.50;98.00;;;;;;5095216;28;20931;-69
2021/09/09 05:31:44;;;;;;;2.63;1.87;;;15.50;98.00;;;;;;5095067;28;20455;-70
2021/09/09 05:34:11;;;;;;;2.40;1.53;;;15.40;98.00;;;;;;5094952;28;20451;-70
2021/09/09 05:36:38;;;;;;;2.37;1.80;;;15.40;98.00;;;;;;5095040;28;20917;-69
2021/09/09 05:39:05;;;;;;;2.90;1.30;;;15.40;98.00;;;;;;5095061;28;21632;-69
2021/09/09 05:41:34;;;;;;;2.50;1.73;;;15.40;98.00;;;;;;5094788;28;20541;-68
2021/09/09 05:44:01;;;;;;;3.93;2.07;;;15.50;98.00;;;;;;5093465;28;20448;-69
2021/09/09 05:46:28;;;;;;;3.40;1.60;;;15.60;98.00;;;;;;5094809;28;20934;-70
2021/09/09 05:48:55;;;;;;;2.37;1.40;;;15.70;98.00;;;;;;5094915;28;20517;-71
2021/09/09 05:51:22;;;;;;;2.23;1.73;;;15.80;98.00;;;;;;5094741;28;20543;-72
2021/09/09 05:53:49;;;;;;;3.23;2.07;;;15.70;98.00;;;;;;5094765;28;20538;-73
2021/09/09 05:56:16;;;;;;;1.40;1.20;;;15.70;98.00;;;;;;5094889;28;20486;-71
2021/09/09 05:58:45;;;;;;;1.73;1.43;;;15.60;98.00;;;;;;5094699;28;20487;-71
2021/09/09 06:01:12;;;;;;;6.33;2.00;;;15.70;98.00;;;;;;5093212;28;20571;-70
2021/09/09 06:03:40;;;;;;;3.60;1.70;;;15.70;98.00;;;;;;5094599;28;20878;-71
2021/09/09 06:06:07;;;;;;;2.40;1.90;;;15.80;98.00;;;;;;5094836;28;20864;-72
2021/09/09 06:08:37;;;;;;;3.20;1.60;;;15.90;98.00;;;;;;5094531;28;20518;-70
2021/09/09 06:11:04;;;;;;;2.50;1.70;;;15.80;98.00;;;;;;5094397;28;20459;-72
2021/09/09 06:13:32;;;;;;;2.37;2.03;;;15.90;98.00;;;;;;5094638;28;20525;-69
2021/09/09 06:16:00;;;;;;;2.27;1.80;;;15.90;98.00;;;;;;5093370;28;20551;-70
2021/09/09 06:18:27;;;;;;;2.80;1.77;;;15.90;98.00;;;;;;5094174;28;20495;-71
2021/09/09 06:20:54;;;;;;;3.13;1.77;;;15.90;98.00;;;;;;5094306;28;20519;-72
2021/09/09 06:23:21;;;;;;;1.70;1.50;;;16.00;98.00;;;;;;5094278;28;20460;-71
2021/09/09 06:25:49;;;;;;;2.10;1.70;;;15.90;98.00;;;;;;5094115;28;20929;-72
2021/09/09 06:28:16;;;;;;;2.53;1.83;;;15.90;98.00;;;;;;5094077;28;20561;-72
2021/09/09 06:30:43;;;;;;;1.90;1.87;;;15.90;98.00;;;;;;5093560;28;20495;-71
2021/09/09 06:33:12;;;;;;;4.60;1.93;;;16.00;98.00;;;;;;5094105;28;20495;-71
2021/09/09 06:35:40;;;;;;;1.70;1.57;;;16.20;98.00;;;;;;5093886;28;20547;-72
2021/09/09 06:38:07;;;;;;;3.53;1.70;;;16.30;98.00;;;;;;5075825;28;20495;-73
2021/09/09 06:40:34;;;;;;;2.40;1.50;;;16.40;98.00;;;;;;5093665;28;20570;-73
2021/09/09 06:43:01;;;;;;;1.60;1.50;;;16.50;98.00;;;;;;5093794;28;20491;-71
2021/09/09 06:45:28;;;;;;;2.53;1.70;;;16.60;98.00;;;;;;5093610;28;20479;-74
2021/09/09 06:47:56;;;;;;;2.23;1.60;;;16.80;98.00;;;;;;5093549;28;20456;-71
2021/09/09 06:50:24;;;;;;;2.73;2.10;;;16.90;98.00;;;;;;5093600;28;20611;-71
2021/09/09 06:52:51;;;;;;;2.43;1.50;;;17.00;98.00;;;;;;5093596;28;20491;-71
2021/09/09 06:55:18;;;;;;;2.60;1.83;;;17.20;98.00;;;;;;5093610;28;20526;-73
2021/09/09 06:57:48;;;;;;;2.00;1.57;;;17.10;98.00;;;;;;5093527;28;20849;-71
2021/09/09 07:00:15;;;;;;;1.93;1.43;;;17.20;98.00;;;;;;5093463;28;20480;-72
2021/09/09 07:02:42;;;;;;;2.70;1.87;;;17.20;98.00;;;;;;5093412;28;20777;-71
2021/09/09 07:05:11;;;;;;;2.77;1.80;;;17.20;98.00;;;;;;5093616;28;20444;-72
2021/09/09 07:07:39;;;;;;;2.57;1.73;;;17.30;98.00;;;;;;5089980;28;21114;-73
2021/09/09 07:10:07;;;;;;;2.30;1.87;;;17.30;98.00;;;;;;5096397;28;20490;-72
2021/09/09 07:12:34;;;;;;;1.90;1.83;;;17.40;98.00;;;;;;5093551;28;21790;-73
2021/09/09 07:15:01;;;;;;;1.93;1.37;;;17.40;98.00;;;;;;5099133;28;21039;-72
2021/09/09 07:17:28;;;;;;;4.37;1.90;;;17.50;98.00;;;;;;5092970;28;20452;-71
2021/09/09 07:19:56;;;;;;;2.70;1.90;;;17.70;98.00;;;;;;5092762;28;20865;-72
2021/09/09 07:22:23;;;;;;;2.30;1.97;;;17.70;98.00;;;;;;5093036;28;20536;-73
2021/09/09 07:24:52;;;;;;;2.97;2.03;;;17.80;98.00;;;;;;5092886;28;20494;-73
2021/09/09 07:27:18;;;;;;;1.60;1.40;;;17.90;98.00;;;;;;5092922;28;20448;-72
2021/09/09 07:29:45;;;;;;;1.47;1.43;;;18.20;98.00;;;;;;5092268;28;21030;-72
2021/09/09 07:32:12;;;;;;;1.93;1.77;;;18.60;98.00;;;;;;5092049;28;20507;-70
2021/09/09 07:34:39;;;;;;;4.47;2.00;;;19.10;98.00;;;;;;5092140;28;20456;-71
2021/09/09 07:37:08;;;;;;;4.00;2.87;;;19.40;98.00;;;;;;5091974;28;20447;-71
2021/09/09 07:39:35;;;;;;;2.33;2.03;;;19.70;98.00;;;;;;5092085;28;20455;-70
2021/09/09 07:42:04;;;;;;;3.50;2.10;;;19.80;98.00;;;;;;5091120;28;20515;-71
2021/09/09 07:44:30;;;;;;;3.00;1.97;;;19.80;98.00;;;;;;5092107;28;20507;-70
2021/09/09 07:46:57;;;;;;;2.87;2.30;;;19.80;98.00;;;;;;5092061;28;20455;-70
2021/09/09 07:49:24;;;;;;;2.90;2.37;;;19.80;98.00;;;;;;5092080;28;20468;-72
2021/09/09 07:51:51;;;;;;;2.67;2.13;;;19.80;98.00;;;;;;5091758;28;20472;-70
2021/09/09 07:54:18;;;;;;;2.47;2.00;;;19.90;98.00;;;;;;5091797;28;20488;-71
2021/09/09 07:56:47;;;;;;;4.00;2.13;;;20.00;98.00;;;;;;5091654;28;20460;-70
2021/09/09 07:59:16;;;;;;;3.20;1.93;;;20.20;98.00;;;;;;5090426;28;20512;-71
2021/09/09 08:01:44;;;;;;;3.57;2.27;;;20.20;98.00;;;;;;5091237;28;20523;-71
2021/09/09 08:04:15;;;;;;;2.07;1.90;;;20.30;98.00;;;;;;5091386;28;20491;-70
2021/09/09 08:06:42;;;;;;;5.83;2.27;;;20.40;98.00;;;;;;5091445;28;20942;-70
2021/09/09 08:09:09;;;;;;;4.47;2.63;;;20.50;98.00;;;;;;5090264;28;20459;-71
2021/09/09 08:11:36;;;;;;;4.60;2.60;;;20.60;98.00;;;;;;5091296;28;20552;-70
2021/09/09 08:14:04;;;;;;;2.10;1.70;;;20.80;98.00;;;;;;5091377;28;20452;-70
2021/09/09 08:16:32;;;;;;;2.10;1.73;;;21.00;98.00;;;;;;5091220;28;20895;-71
2021/09/09 08:19:00;;;;;;;2.93;2.13;;;21.10;98.00;;;;;;5091407;28;20495;-71
2021/09/09 08:21:27;;;;;;;3.00;2.13;;;21.30;98.00;;;;;;5091311;28;20516;-71
2021/09/09 08:23:54;;;;;;;1.73;1.60;;;21.40;98.00;;;;;;5091259;28;20536;-72
2021/09/09 08:26:21;;;;;;;2.70;2.00;;;21.60;98.00;;;;;;5091308;28;20452;-71
2021/09/09 08:28:48;;;;;;;3.47;2.13;;;21.70;98.00;;;;;;5091115;28;20487;-73
2021/09/09 08:31:15;;;;;;;2.53;1.97;;;21.80;98.00;;;;;;5090823;28;20511;-71
2021/09/09 08:33:55;;;;;;;3.13;2.20;;;22.00;98.00;;;;;;5091160;28;20483;-72
2021/09/09 08:36:22;;;;;;;4.83;2.80;;;22.30;98.00;;;;;;5091052;28;20451;-71
2021/09/09 08:38:50;;;;;;;3.40;2.17;;;22.40;98.00;;;;;;5090991;28;20456;-72
2021/09/09 08:41:18;;;;;;;5.07;2.70;;;22.60;98.00;;;;;;5091209;28;20479;-70
2021/09/09 08:43:45;;;;;;;2.30;2.07;;;22.90;98.00;;;;;;5091063;28;20509;-70
2021/09/09 08:46:15;;;;;;;2.70;1.93;;;23.10;98.00;;;;;;5091236;28;20452;-71
2021/09/09 08:48:45;;;;;;;2.90;1.97;;;23.20;98.00;;;;;;5091048;28;20460;-71
2021/09/09 08:51:13;;;;;;;3.57;2.40;;;23.40;98.00;;;;;;5090986;28;20513;-71
2021/09/09 08:53:41;;;;;;;2.80;1.90;;;23.50;98.00;;;;;;5094775;28;20551;-72
2021/09/09 08:56:08;;;;;;;3.43;2.13;;;23.60;98.00;;;;;;5095180;28;20495;-72
2021/09/09 08:58:36;;;;;;;3.20;2.10;;;23.60;98.00;;;;;;5095291;28;20552;-71
2021/09/09 09:01:11;;;;;;;3.83;2.23;;;23.70;98.00;;;;;;5094971;28;20487;-71
2021/09/09 09:03:47;;;;;;;2.90;2.10;;;23.80;98.00;;;;;;5095156;28;20455;-72
2021/09/09 09:06:38;;;;;;;4.17;2.40;;;23.90;98.00;;;;;;5095383;28;20479;-71
2021/09/09 09:09:12;;;;;;;3.00;2.47;;;24.10;98.00;;;;;;5079494;28;20897;-70
2021/09/09 09:11:42;;;;;;;2.57;1.83;;;24.10;98.00;;;;;;5094993;28;20455;-71
2021/09/09 09:14:11;;;;;;;2.67;2.03;;;24.10;98.00;;;;;;5094841;28;20926;-72
2021/09/09 09:16:44;;;;;;;3.00;1.90;;;24.10;98.00;;;;;;5094707;28;20539;-71
2021/09/09 09:19:13;;;;;;;3.80;2.47;;;24.20;98.00;;;;;;5093683;28;20466;-72
2021/09/09 09:21:45;;;;;;;5.10;2.57;;;24.10;98.00;;;;;;5094530;28;20483;-71
2021/09/09 09:24:16;;;;;;;3.33;2.23;;;24.10;98.00;;;;;;5092931;28;20888;-71
2021/09/09 09:27:05;;;;;;;3.47;2.70;;;24.20;98.00;;;;;;5094805;28;20463;-72
2021/09/09 09:29:32;;;;;;;2.50;2.07;;;24.40;98.00;;;;;;5094334;28;20832;-71
2021/09/09 09:32:13;;;;;;;3.77;2.20;;;24.60;96.60;;;;;;5094413;28;20997;-71
2021/09/09 09:34:42;;;;;;;2.23;1.80;;;24.80;98.00;;;;;;5094583;28;20454;-71
2021/09/09 09:37:09;;;;;;;4.40;2.40;;;24.90;96.10;;;;;;5094251;28;20448;-71
2021/09/09 09:39:36;;;;;;;3.00;2.30;;;25.10;96.50;;;;;;5094329;28;20512;-71
2021/09/09 09:42:05;;;;;;;2.97;2.10;;;25.30;96.60;;;;;;5094104;28;20584;-72
2021/09/09 09:44:35;;;;;;;4.13;2.10;;;25.30;96.90;;;;;;5094290;28;21445;-71
2021/09/09 09:47:09;;;;;;;2.70;1.73;;;25.40;95.20;;;;;;5092858;28;20816;-71
2021/09/09 09:49:39;;;;;;;3.77;2.50;;;25.50;96.00;;;;;;5094193;28;20525;-71
2021/09/09 09:52:08;;;;;;;4.57;2.90;;;25.70;95.10;;;;;;5093914;28;20505;-72
2021/09/09 09:54:36;;;;;;;4.17;2.63;;;25.80;93.90;;;;;;5094091;28;20454;-72
2021/09/09 09:57:04;;;;;;;4.33;2.90;;;25.80;93.40;;;;;;5093996;28;20447;-70
2021/09/09 09:59:39;;;;;;;3.03;2.20;;;26.00;94.30;;;;;;5093959;28;20506;-71
2021/09/09 10:02:06;;;;;;;4.47;2.30;;;26.30;93.10;;;;;;5093769;28;20487;-72
2021/09/09 10:04:33;;;;;;;5.13;2.60;;;26.40;93.80;;;;;;5092915;28;20904;-72
2021/09/09 10:07:00;;;;;;;2.77;2.20;;;26.50;91.60;;;;;;5093915;28;20467;-72
2021/09/09 10:09:29;;;;;;;4.77;2.40;;;26.60;90.60;;;;;;5092564;28;20456;-71
2021/09/09 10:11:56;;;;;;;3.60;2.60;;;26.60;90.20;;;;;;5093642;28;20487;-71
2021/09/09 10:14:26;;;;;;;4.27;2.63;;;26.60;90.20;;;;;;5093737;28;20517;-71
2021/09/09 10:16:56;;;;;;;3.10;2.27;;;26.70;89.10;;;;;;5093590;28;21028;-70
2021/09/09 10:19:25;;;;;;;5.30;2.80;;;26.80;90.40;;;;;;5093671;28;20867;-71
2021/09/09 10:22:04;;;;;;;3.70;2.30;;;26.90;91.30;;;;;;5093592;28;20484;-72
2021/09/09 10:24:34;;;;;;;3.23;2.47;;;27.10;90.50;;;;;;5092216;28;20456;-71
2021/09/09 10:27:42;;;;;;;2.80;2.43;;;27.20;88.40;;;;;;5093462;28;20460;-70
2021/09/09 10:30:17;;;;;;;4.60;2.67;;;27.40;88.20;;;;;;5030776;28;20470;-71
2021/09/09 10:32:57;;;;;;;3.30;2.43;;;27.40;88.20;;;;;;5030594;28;20559;-72
2021/09/09 10:35:36;;;;;;;4.10;2.77;;;27.60;88.40;;;;;;5070506;28;20452;-72
2021/09/09 10:38:27;;;;;;;2.80;2.40;;;27.70;89.30;;;;;;5093056;28;20459;-71
2021/09/09 10:40:57;;;;;;;3.70;2.50;;;27.60;88.10;;;;;;5092985;28;20533;-73
2021/09/09 10:43:46;;;;;;;4.13;2.20;;;27.70;88.00;;;;;;5092931;28;20506;-72
2021/09/09 10:46:14;;;;;;;4.17;2.40;;;27.80;88.10;;;;;;5092918;28;20455;-69
2021/09/09 10:48:43;;;;;;;4.10;2.30;;;28.10;87.70;;;;;;5093000;28;20452;-69
2021/09/09 10:51:12;;;;;;;4.67;2.60;;;28.30;86.90;;;;;;5092858;28;20459;-68
2021/09/09 10:53:41;;;;;;;3.30;2.57;;;28.60;85.60;;;;;;5092616;28;20451;-68
2021/09/09 10:56:15;;;;;;;4.40;2.87;;;28.30;86.00;;;;;;5092450;28;20613;-70
2021/09/09 10:58:43;;;;;;;4.10;2.53;;;28.40;86.90;;;;;;5092574;28;20483;-68
2021/09/09 11:01:11;;;;;;;7.63;3.07;;;28.50;86.20;;;;;;5092351;28;20495;-68
2021/09/09 11:03:42;;;;;;;5.33;2.73;;;28.40;85.40;;;;;;5092541;28;20444;-69
2021/09/09 11:06:12;;;;;;;4.43;2.60;;;28.30;86.20;;;;;;5092407;28;20459;-69
2021/09/09 11:08:41;;;;;;;4.83;3.03;;;28.60;84.90;;;;;;5092500;28;20456;-69
2021/09/09 11:11:10;;;;;;;3.60;2.77;;;28.60;85.30;;;;;;5092260;28;20487;-70
2021/09/09 11:13:41;;;;;;;4.57;2.90;;;28.90;84.90;;;;;;5092325;28;20541;-70
2021/09/09 11:16:27;;;;;;;4.97;2.73;;;29.20;84.30;;;;;;5090942;28;20452;-70
2021/09/09 11:18:55;;;;;;;4.70;2.43;;;29.40;83.90;;;;;;5092222;28;20827;-71
2021/09/09 11:21:24;;;;;;;5.20;3.13;;;29.60;83.60;;;;;;5091318;28;20459;-72
2021/09/09 11:24:00;;;;;;;4.30;2.70;;;29.80;82.90;;;;;;5092210;28;20514;-70
2021/09/09 11:26:28;;;;;;;2.90;2.50;;;29.80;81.70;;;;;;5091994;28;20508;-72
2021/09/09 11:28:59;;;;;;;4.70;3.07;;;29.90;81.50;;;;;;5092001;28;20556;-71
2021/09/09 11:31:27;;;;;;;3.53;2.37;;;29.90;81.30;;;;;;5090846;28;20484;-71
2021/09/09 11:33:56;;;;;;;4.23;2.73;;;30.10;81.30;;;;;;5092083;28;20487;-73
2021/09/09 11:36:26;;;;;;;3.60;2.37;;;30.10;80.20;;;;;;5092083;28;20452;-71
2021/09/09 11:38:54;;;;;;;4.10;2.73;;;29.90;81.20;;;;;;5092088;28;20941;-71
2021/09/09 11:41:23;;;;;;;5.27;2.50;;;30.10;80.90;;;;;;5091854;28;21007;-72
2021/09/09 11:43:52;;;;;;;4.97;2.80;;;30.20;81.10;;;;;;5092081;28;20517;-71
2021/09/09 11:46:30;;;;;;;4.90;3.00;;;30.10;78.70;;;;;;5092089;28;20447;-71
2021/09/09 11:48:58;;;;;;;6.20;2.70;;;30.00;80.10;;;;;;5092152;28;20456;-70
2021/09/09 11:51:37;;;;;;;7.50;3.00;;;30.00;78.60;;;;;;5092003;28;20870;-71
2021/09/09 11:54:05;;;;;;;4.30;2.60;;;30.00;80.80;;;;;;5091722;28;20479;-70
2021/09/09 11:56:32;;;;;;;4.63;3.00;;;30.20;80.30;;;;;;5091666;28;20502;-72
2021/09/09 11:59:03;;;;;;;4.47;2.87;;;30.30;79.90;;;;;;5092035;28;20455;-70
2021/09/09 12:01:33;;;;;;;3.20;2.30;;;30.30;80.20;;;;;;5091915;28;20486;-71
2021/09/09 12:04:02;;;;;;;5.87;2.57;;;30.30;80.00;;;;;;5091738;28;20486;-72
2021/09/09 12:06:30;;;;;;;4.73;2.63;;;30.40;80.50;;;;;;5091616;28;20867;-72
2021/09/09 12:08:57;;;;;;;3.50;2.50;;;30.30;79.10;;;;;;5091648;28;20456;-71
2021/09/09 12:11:25;;;;;;;4.37;2.77;;;30.20;78.80;;;;;;5092120;28;20494;-74
2021/09/09 12:13:52;;;;;;;5.27;3.23;;;30.10;79.90;;;;;;5090941;28;20480;-71
2021/09/09 12:16:22;;;;;;;3.90;2.43;;;29.60;79.50;;;;;;5091774;28;20487;-75
2021/09/09 12:19:02;;;;;;;3.20;2.43;;;29.60;81.60;;;;;;5095508;28;20508;-71
2021/09/09 12:21:29;;;;;;;3.33;2.30;;;29.60;81.40;;;;;;5097159;28;20505;-71
2021/09/09 12:24:10;;;;;;;4.00;2.67;;;29.40;81.10;;;;;;5096054;28;20463;-70
2021/09/09 12:26:39;;;;;;;3.70;2.47;;;29.10;80.90;;;;;;5105939;28;20451;-69
2021/09/09 12:29:16;;;;;;;3.13;2.40;;;29.00;82.20;;;;;;5107482;28;20835;-70
2021/09/09 12:31:43;;;;;;;4.53;2.40;;;29.10;79.40;;;;;;5090312;28;20491;-71
2021/09/09 12:34:14;;;;;;;3.00;2.40;;;29.10;81.60;;;;;;5097129;28;20490;-70
2021/09/09 12:36:42;;;;;;;3.13;2.20;;;29.30;78.90;;;;;;5090535;28;20456;-70
2021/09/09 12:39:10;;;;;;;4.70;2.43;;;29.30;79.60;;;;;;5091037;28;20484;-70
2021/09/09 12:41:37;;;;;;;3.33;2.60;;;29.20;79.30;;;;;;5098256;28;20459;-71
2021/09/09 12:44:15;;;;;;;3.33;2.30;;;29.10;80.70;;;;;;5097557;28;20486;-72
2021/09/09 12:46:44;;;;;;;3.10;2.53;;;29.40;80.00;;;;;;5099724;28;20458;-71
2021/09/09 12:49:15;;;;;;;4.60;2.80;;;29.70;79.60;;;;;;5097697;28;20451;-74
2021/09/09 12:51:45;;;;;;;3.57;2.13;;;29.90;78.80;;;;;;5098917;28;20463;-72
2021/09/09 12:54:14;;;;;;;3.10;2.17;;;30.10;77.80;;;;;;5097675;28;20630;-71
2021/09/09 12:56:46;;;;;;;3.20;2.30;;;30.10;77.10;;;;;;5107088;28;20502;-72